Time;durP1;ratioP1;P1;durP2;ratioP2;P2;SDS_P1;SDS_P2;PMS_P1;PMS_P2;Temp;Humidity;BMP_temperature;BMP_pressure;BME280_temperature;BME280_humidity;BME280_pressure;Samples;Min_cycle;Max_cycle;Signal;HPM_P1;HPM_P2
2022/05/11 00:01:33;;;;;;;;;;;19.10;60.60;;;;;;5025229;28;1227;-78
2022/05/11 00:03:59;;;;;;;;;;;19.10;60.50;;;;;;5023893;28;1307;-79
2022/05/11 00:06:25;;;;;;;;;;;19.10;60.50;;;;;;5021474;28;1239;-80
2022/05/11 00:08:51;;;;;;;;;;;19.10;60.50;;;;;;5027978;28;1359;-78
2022/05/11 00:11:17;;;;;;;;;;;19.10;60.60;;;;;;5014353;28;1160;-79
2022/05/11 00:13:44;;;;;;;;;;;19.10;60.60;;;;;;5013401;28;1902;-79
2022/05/11 00:16:09;;;;;;;;;;;19.10;60.50;;;;;;5013151;28;1199;-80
2022/05/11 00:18:35;;;;;;;;;;;19.10;60.50;;;;;;5013726;28;1259;-80
2022/05/11 00:21:00;;;;;;;;;;;19.10;60.60;;;;;;5029799;28;1319;-79
2022/05/11 00:23:26;;;;;;;;;;;19.10;60.60;;;;;;5031564;28;1182;-80
2022/05/11 00:25:51;;;;;;;;;;;19.10;60.60;;;;;;5014879;28;1369;-78
2022/05/11 00:28:16;;;;;;;;;;;19.10;60.60;;;;;;5015178;28;956;-80
2022/05/11 00:30:42;;;;;;;;;;;19.10;60.60;;;;;;5032003;28;1169;-79
2022/05/11 00:33:10;;;;;;;;;;;19.10;60.60;;;;;;5032464;28;1898;-78
2022/05/11 00:35:36;;;;;;;;;;;19.10;60.60;;;;;;5015770;28;1191;-78
2022/05/11 00:38:01;;;;;;;;;;;19.10;60.60;;;;;;5016113;28;1275;-78
2022/05/11 00:40:27;;;;;;;;;;;19.10;60.60;;;;;;5012641;28;1291;-79
2022/05/11 00:42:52;;;;;;;;;;;19.10;61.40;;;;;;5014000;28;1020;-78
2022/05/11 00:45:18;;;;;;;;;;;19.10;60.70;;;;;;5014275;28;1156;-78
2022/05/11 00:47:48;;;;;;;;;;;19.10;60.70;;;;;;5012897;28;1388;-78
2022/05/11 00:50:21;;;;;;;;;;;19.10;60.70;;;;;;5012852;28;1274;-78
2022/05/11 00:52:47;;;;;;;;;;;19.10;60.60;;;;;;5010176;28;1966;-78
2022/05/11 00:55:20;;;;;;;;;;;19.10;60.70;;;;;;5010436;28;1262;-78
2022/05/11 00:57:52;;;;;;;;;;;19.10;60.70;;;;;;5027571;28;1194;-78
2022/05/11 01:00:17;;;;;;;;;;;19.10;60.70;;;;;;5031412;28;1302;-81
2022/05/11 01:02:43;;;;;;;;;;;19.10;60.70;;;;;;5036943;28;1298;-80
2022/05/11 01:05:09;;;;;;;;;;;19.10;60.70;;;;;;5038438;28;1271;-80
2022/05/11 01:07:34;;;;;;;;;;;19.10;60.70;;;;;;5038858;28;1250;-79
2022/05/11 01:09:59;;;;;;;;;;;19.10;60.70;;;;;;5037664;28;1295;-79
2022/05/11 01:12:31;;;;;;;;;;;19.10;60.70;;;;;;5042660;28;954;-79
2022/05/11 01:14:57;;;;;;;;;;;19.10;60.70;;;;;;5044129;28;1879;-79
2022/05/11 01:17:24;;;;;;;;;;;19.10;60.70;;;;;;5043715;28;1184;-79
2022/05/11 01:19:50;;;;;;;;;;;19.10;60.70;;;;;;5024924;28;1296;-80
2022/05/11 01:22:25;;;;;;;;;;;19.10;60.70;;;;;;5027127;28;1033;-79
2022/05/11 01:24:50;;;;;;;;;;;19.10;60.70;;;;;;5028592;28;1183;-79
2022/05/11 01:27:35;;;;;;;;;;;19.10;60.70;;;;;;5027805;28;1216;-80
2022/05/11 01:30:05;;;;;;;;;;;19.10;60.70;;;;;;5027625;28;1599;-80
2022/05/11 01:32:31;;;;;;;;;;;19.10;60.70;;;;;;5027769;28;1179;-79
2022/05/11 01:34:58;;;;;;;;;;;19.10;60.70;;;;;;5027585;28;1899;-79
2022/05/11 01:37:24;;;;;;;;;;;19.10;60.70;;;;;;5029488;28;1207;-80
2022/05/11 01:39:49;;;;;;;;;;;19.10;60.70;;;;;;5044908;28;1319;-80
2022/05/11 01:42:15;;;;;;;;;;;19.10;60.70;;;;;;5044731;28;1235;-79
2022/05/11 01:44:40;;;;;;;;;;;19.10;60.70;;;;;;5043734;28;1084;-79
2022/05/11 01:47:06;;;;;;;;;;;19.10;60.70;;;;;;5043372;28;1175;-80
2022/05/11 01:49:31;;;;;;;;;;;19.10;60.70;;;;;;5044067;28;1307;-80
2022/05/11 01:51:57;;;;;;;;;;;19.10;60.70;;;;;;5043402;28;1020;-80
2022/05/11 01:54:23;;;;;;;;;;;19.10;60.70;;;;;;5026273;28;1956;-80
2022/05/11 01:56:49;;;;;;;;;;;19.10;60.80;;;;;;5042501;28;1139;-79
2022/05/11 01:59:14;;;;;;;;;;;19.10;60.80;;;;;;5023978;28;1253;-79
2022/05/11 02:01:41;;;;;;;;;;;19.10;60.80;;;;;;5025526;28;1199;-79
2022/05/11 02:07:49;;;;;;;;;;;19.10;60.80;;;;;;5042168;28;1305;-80
2022/05/11 02:09:36;;;;;;;;;;;19.10;60.70;;;;;;5025541;28;1217;-80
2022/05/11 02:12:02;;;;;;;;;;;19.10;60.80;;;;;;5025431;28;840;-79
2022/05/11 02:14:28;;;;;;;;;;;19.10;60.80;;;;;;5025332;28;1907;-79
2022/05/11 02:16:53;;;;;;;;;;;19.10;60.80;;;;;;5024658;28;1144;-78
2022/05/11 02:19:20;;;;;;;;;;;19.10;60.80;;;;;;5020009;28;1277;-80
2022/05/11 02:21:46;;;;;;;;;;;19.10;60.80;;;;;;5015073;28;1176;-79
2022/05/11 02:24:12;;;;;;;;;;;19.10;60.80;;;;;;4998310;28;1211;-79
2022/05/11 02:26:37;;;;;;;;;;;19.10;60.80;;;;;;5015276;28;939;-80
2022/05/11 02:29:02;;;;;;;;;;;19.10;60.80;;;;;;5014236;28;1281;-80
2022/05/11 02:31:28;;;;;;;;;;;19.10;60.80;;;;;;5014490;28;977;-80
2022/05/11 02:33:54;;;;;;;;;;;19.10;60.80;;;;;;5031377;28;1879;-79
2022/05/11 02:36:19;;;;;;;;;;;19.10;60.80;;;;;;5013384;28;1173;-78
2022/05/11 02:38:44;;;;;;;;;;;19.10;60.80;;;;;;5030741;28;1229;-79
2022/05/11 02:41:10;;;;;;;;;;;19.10;60.80;;;;;;5030655;28;1271;-78
2022/05/11 02:43:35;;;;;;;;;;;19.10;60.80;;;;;;5030358;28;1609;-79
2022/05/11 02:46:01;;;;;;;;;;;19.10;60.80;;;;;;5030700;28;1032;-79
2022/05/11 02:48:26;;;;;;;;;;;19.10;60.80;;;;;;5030650;28;1266;-79
2022/05/11 02:50:53;;;;;;;;;;;19.10;60.90;;;;;;5029608;28;1268;-79
2022/05/11 02:53:18;;;;;;;;;;;19.10;60.90;;;;;;5030364;28;1911;-79
2022/05/11 02:55:44;;;;;;;;;;;19.10;60.90;;;;;;5029765;28;1349;-79
2022/05/11 02:58:11;;;;;;;;;;;19.10;60.90;;;;;;5033746;28;1270;-77
2022/05/11 03:00:36;;;;;;;;;;;19.10;60.90;;;;;;5034101;28;1398;-79
2022/05/11 03:03:02;;;;;;;;;;;19.10;60.90;;;;;;5036654;28;1371;-80
2022/05/11 03:05:28;;;;;;;;;;;19.10;60.90;;;;;;5035202;28;1261;-79
2022/05/11 03:07:53;;;;;;;;;;;19.10;60.90;;;;;;5034949;28;1038;-79
2022/05/11 03:10:19;;;;;;;;;;;19.10;60.90;;;;;;5034141;28;1323;-78
2022/05/11 03:12:44;;;;;;;;;;;19.10;60.90;;;;;;5035126;28;1965;-80
2022/05/11 03:15:10;;;;;;;;;;;19.10;61.60;;;;;;5035404;28;1243;-78
2022/05/11 03:17:36;;;;;;;;;;;19.10;60.90;;;;;;5035305;28;1274;-80
2022/05/11 03:20:02;;;;;;;;;;;19.10;60.90;;;;;;5018440;28;1369;-78
2022/05/11 03:22:27;;;;;;;;;;;19.10;60.90;;;;;;5019135;28;1164;-78
2022/05/11 03:24:53;;;;;;;;;;;19.10;60.90;;;;;;5017966;28;1385;-78
2022/05/11 03:27:18;;;;;;;;;;;19.10;60.90;;;;;;5017768;28;1017;-79
2022/05/11 03:29:44;;;;;;;;;;;19.10;60.90;;;;;;5017449;28;1233;-78
2022/05/11 03:34:53;;;;;;;;;;;19.10;60.90;;;;;;5016688;28;1940;-79
2022/05/11 03:37:19;;;;;;;;;;;19.10;60.90;;;;;;5059407;22;3831;-66
2022/05/11 03:39:45;;;;;;;;;;;19.10;61.00;;;;;;5050243;28;808;-68
2022/05/11 03:42:11;;;;;;;;;;;19.10;60.90;;;;;;5051587;28;870;-65
2022/05/11 03:44:36;;;;;;;;;;;19.10;60.90;;;;;;5052525;28;808;-67
2022/05/11 03:47:02;;;;;;;;;;;19.10;60.90;;;;;;5052570;28;1239;-69
2022/05/11 03:49:28;;;;;;;;;;;19.10;61.00;;;;;;5052197;28;930;-70
2022/05/11 03:51:53;;;;;;;;;;;19.10;61.00;;;;;;5051270;28;812;-71
2022/05/11 03:54:18;;;;;;;;;;;19.10;61.00;;;;;;5051085;28;1979;-70
2022/05/11 03:56:44;;;;;;;;;;;19.10;61.00;;;;;;5050280;28;1302;-70
2022/05/11 03:59:09;;;;;;;;;;;19.10;61.00;;;;;;5032503;28;994;-70
2022/05/11 04:01:35;;;;;;;;;;;19.10;61.00;;;;;;5032115;28;1064;-70
2022/05/11 04:04:00;;;;;;;;;;;19.10;61.00;;;;;;5031467;28;862;-70
2022/05/11 04:06:26;;;;;;;;;;;19.10;61.00;;;;;;5031123;28;1212;-70
2022/05/11 04:08:51;;;;;;;;;;;19.10;61.00;;;;;;5047784;28;1345;-67
2022/05/11 04:11:17;;;;;;;;;;;19.10;61.00;;;;;;5028770;28;2416;-67
2022/05/11 04:13:42;;;;;;;;;;;19.10;61.70;;;;;;5031838;28;1950;-69
2022/05/11 04:16:08;;;;;;;;;;;19.10;61.00;;;;;;5032528;28;1211;-69
2022/05/11 04:18:33;;;;;;;;;;;19.10;61.00;;;;;;5037530;28;1375;-69
2022/05/11 04:20:59;;;;;;;;;;;19.10;61.00;;;;;;5025404;28;1380;-64
2022/05/11 04:23:24;;;;;;;;;;;19.10;61.00;;;;;;5027652;28;1295;-65
2022/05/11 04:25:50;;;;;;;;;;;19.10;61.00;;;;;;5029928;28;1298;-65
2022/05/11 04:28:15;;;;;;;;;;;19.10;61.00;;;;;;5030927;28;1149;-65
2022/05/11 04:30:41;;;;;;;;;;;19.10;61.00;;;;;;5030806;28;1141;-64
2022/05/11 04:33:06;;;;;;;;;;;19.10;61.00;;;;;;5031379;28;1948;-66
2022/05/11 04:35:34;;;;;;;;;;;19.10;61.00;;;;;;5044747;28;1339;-67
2022/05/11 04:38:03;;;;;;;;;;;19.10;61.00;;;;;;5053381;28;867;-67
2022/05/11 04:40:29;;;;;;;;;;;19.10;61.00;;;;;;5052746;28;812;-68
2022/05/11 04:42:54;;;;;;;;;;;19.10;61.10;;;;;;5053357;28;977;-68
2022/05/11 04:45:20;;;;;;;;;;;19.10;61.00;;;;;;5071049;28;1156;-71
2022/05/11 04:47:45;;;;;;;;;;;19.10;61.00;;;;;;5075308;28;811;-67
2022/05/11 04:50:11;;;;;;;;;;;19.10;61.00;;;;;;5074457;28;872;-68
2022/05/11 04:52:37;;;;;;;;;;;19.10;61.10;;;;;;5056749;28;829;-68
2022/05/11 04:55:02;;;;;;;;;;;19.10;61.00;;;;;;5074953;28;1898;-68
2022/05/11 04:57:28;;;;;;;;;;;19.10;61.00;;;;;;5066728;28;1417;-66
2022/05/11 04:59:53;;;;;;;;;;;19.10;61.00;;;;;;5054493;28;789;-66
2022/05/11 05:02:19;;;;;;;;;;;19.10;61.00;;;;;;5055015;28;850;-67
2022/05/11 05:04:45;;;;;;;;;;;19.10;61.10;;;;;;5036708;28;1106;-69
2022/05/11 05:07:10;;;;;;;;;;;19.10;61.10;;;;;;5036750;28;1240;-69
2022/05/11 05:09:36;;;;;;;;;;;19.10;61.10;;;;;;5036255;28;813;-67
2022/05/11 05:12:01;;;;;;;;;;;19.10;61.10;;;;;;5054966;28;939;-66
2022/05/11 05:14:27;;;;;;;;;;;19.10;61.80;;;;;;5054853;28;1906;-66
2022/05/11 05:16:52;;;;;;;;;;;19.10;61.10;;;;;;5054639;28;1385;-66
2022/05/11 05:19:18;;;;;;;;;;;19.10;61.10;;;;;;5069710;28;1131;-66
2022/05/11 05:21:43;;;;;;;;;;;19.10;61.10;;;;;;5060702;28;2162;-66
2022/05/11 05:24:09;;;;;;;;;;;19.10;61.10;;;;;;5048516;28;833;-67
2022/05/11 05:26:34;;;;;;;;;;;19.10;61.10;;;;;;5054243;28;1223;-66
2022/05/11 05:31:44;;;;;;;;;;;19.10;61.10;;;;;;5054610;28;568;-67
2022/05/11 05:34:09;;;;;;;;;;;19.10;61.10;;;;;;5056026;28;1906;-67
2022/05/11 05:36:38;;;;;;;;;;;19.10;61.10;;;;;;5073210;28;1219;-67
2022/05/11 05:39:03;;;;;;;;;;;19.10;61.10;;;;;;5056688;28;927;-67
2022/05/11 05:41:29;;;;;;;;;;;19.10;61.10;;;;;;5073913;28;1010;-67
2022/05/11 05:43:54;;;;;;;;;;;19.10;61.10;;;;;;5073895;28;1076;-68
2022/05/11 05:46:20;;;;;;;;;;;19.10;61.10;;;;;;5055917;28;1309;-66
2022/05/11 05:48:45;;;;;;;;;;;19.10;61.10;;;;;;5056202;28;1081;-66
2022/05/11 05:51:11;;;;;;;;;;;19.10;61.10;;;;;;5072932;28;880;-66
2022/05/11 05:53:37;;;;;;;;;;;19.10;61.10;;;;;;5073884;28;1961;-68
2022/05/11 05:56:03;;;;;;;;;;;19.10;61.10;;;;;;5055816;28;1290;-68
2022/05/11 05:58:29;;;;;;;;;;;19.10;61.10;;;;;;5032172;28;2198;-70
2022/05/11 06:00:54;;;;;;;;;;;19.10;61.10;;;;;;5052480;28;2240;-66
2022/05/11 06:03:20;;;;;;;;;;;19.10;61.10;;;;;;5053544;28;1020;-67
2022/05/11 06:05:45;;;;;;;;;;;19.10;61.90;;;;;;5034994;28;1305;-67
2022/05/11 06:08:15;;;;;;;;;;;19.10;61.10;;;;;;5053365;28;951;-66
2022/05/11 06:10:40;;;;;;;;;;;19.10;61.10;;;;;;5052794;28;877;-66
2022/05/11 06:13:06;;;;;;;;;;;19.10;61.10;;;;;;5053013;28;1947;-68
2022/05/11 06:15:32;;;;;;;;;;;19.10;61.20;;;;;;5053592;28;1321;-68
2022/05/11 06:17:57;;;;;;;;;;;19.10;61.20;;;;;;5058318;28;1114;-67
2022/05/11 06:20:22;;;;;;;;;;;19.10;61.20;;;;;;5072730;28;931;-67
2022/05/11 06:22:48;;;;;;;;;;;19.10;61.20;;;;;;5072712;28;1046;-66
2022/05/11 06:25:14;;;;;;;;;;;19.10;61.20;;;;;;5073176;28;1231;-65
2022/05/11 06:27:39;;;;;;;;;;;19.10;61.20;;;;;;5073198;28;868;-67
2022/05/11 06:30:06;;;;;;;;;;;19.10;61.20;;;;;;5071130;28;1360;-67
2022/05/11 06:32:31;;;;;;;;;;;19.10;61.20;;;;;;5055385;28;1169;-68
2022/05/11 06:34:57;;;;;;;;;;;19.10;61.20;;;;;;5072816;28;1955;-68
2022/05/11 06:37:23;;;;;;;;;;;19.10;61.20;;;;;;5072341;28;1288;-66
2022/05/11 06:39:48;;;;;;;;;;;19.10;61.10;;;;;;5054431;28;1019;-67
2022/05/11 06:42:14;;;;;;;;;;;19.10;61.20;;;;;;5055176;28;863;-66
2022/05/11 06:44:39;;;;;;;;;;;19.10;61.20;;;;;;5072843;28;928;-65
2022/05/11 06:47:05;;;;;;;;;;;19.10;61.20;;;;;;5072755;28;1234;-67
2022/05/11 06:49:31;;;;;;;;;;;19.10;61.20;;;;;;5072392;28;911;-68
2022/05/11 06:51:56;;;;;;;;;;;19.10;61.20;;;;;;5054127;28;2300;-68
2022/05/11 06:59:52;;;;;;;;;;;19.10;61.20;;;;;;5036411;28;639;-67
2022/05/11 07:02:19;;;;;;;;;;;19.10;61.20;;;;;;5052987;28;865;-67
2022/05/11 07:04:44;;;;;;;;;;;19.10;61.20;;;;;;5052334;28;1142;-67
2022/05/11 07:07:10;;;;;;;;;;;19.10;61.20;;;;;;5051939;28;1226;-67
2022/05/11 07:09:35;;;;;;;;;;;19.10;61.20;;;;;;5051073;28;963;-66
2022/05/11 07:14:47;;;;;;;;;;;19.10;61.20;;;;;;5052946;28;1959;-66
2022/05/11 07:17:12;;;;;;;;;;;19.10;61.20;;;;;;5053076;28;1312;-68
2022/05/11 07:19:42;;;;;;;;;;;19.10;61.20;;;;;;5036686;28;1178;-67
2022/05/11 07:22:07;;;;;;;;;;;19.10;61.20;;;;;;5015809;28;907;-67
2022/05/11 07:24:33;;;;;;;;;;;19.10;61.20;;;;;;5032934;28;711;-67
2022/05/11 07:26:59;;;;;;;;;;;19.10;61.20;;;;;;5032797;28;1304;-67
2022/05/11 07:29:25;;;;;;;;;;;19.10;61.20;;;;;;5014942;28;840;-67
2022/05/11 07:31:50;;;;;;;;;;;19.10;61.20;;;;;;5033418;28;776;-67
2022/05/11 07:34:16;;;;;;;;;;;19.10;61.20;;;;;;5038147;28;1952;-67
2022/05/11 07:36:41;;;;;;;;;;;19.10;61.20;;;;;;5072867;28;1284;-67
2022/05/11 07:39:08;;;;;;;;;;;19.10;61.30;;;;;;5071972;28;963;-67
2022/05/11 07:41:34;;;;;;;;;;;19.10;61.20;;;;;;5072109;28;876;-67
2022/05/11 07:43:59;;;;;;;;;;;19.10;61.20;;;;;;5072987;28;884;-67
2022/05/11 07:46:26;;;;;;;;;;;19.10;61.20;;;;;;5054674;28;1286;-67
2022/05/11 07:48:52;;;;;;;;;;;19.10;61.30;;;;;;5072876;28;903;-67
2022/05/11 07:51:17;;;;;;;;;;;19.10;61.20;;;;;;5071880;28;824;-67
2022/05/11 07:53:44;;;;;;;;;;;19.10;61.30;;;;;;5050979;28;1906;-68
2022/05/11 08:01:37;;;;;;;;;;;19.10;61.30;;;;;;5051224;28;711;-69
2022/05/11 08:04:03;;;;;;;;;;;19.10;61.30;;;;;;5051657;28;705;-70
2022/05/11 08:06:28;;;;;;;;;;;19.10;61.30;;;;;;5048837;28;2281;-69
2022/05/11 08:08:54;;;;;;;;;;;19.10;61.30;;;;;;5047651;28;1187;-69
2022/05/11 08:11:19;;;;;;;;;;;19.10;61.30;;;;;;5050703;28;1106;-69
2022/05/11 08:13:44;;;;;;;;;;;19.10;61.30;;;;;;5051078;28;1902;-69
2022/05/11 08:16:10;;;;;;;;;;;19.10;61.30;;;;;;5032949;28;1294;-69
2022/05/11 08:18:35;;;;;;;;;;;19.10;61.30;;;;;;5060188;28;1178;-69
2022/05/11 08:21:01;;;;;;;;;;;19.10;61.30;;;;;;5058742;28;1040;-68
2022/05/11 08:23:28;;;;;;;;;;;19.10;61.30;;;;;;5055130;28;1291;-69
2022/05/11 08:25:57;;;;;;;;;;;19.10;61.40;;;;;;5037434;28;1248;-68
2022/05/11 08:28:22;;;;;;;;;;;19.10;61.30;;;;;;5051211;28;1664;-68
2022/05/11 08:33:33;;;;;;;;;;;19.10;61.30;;;;;;5040527;28;1977;-70
2022/05/11 08:35:59;;;;;;;;;;;19.10;61.30;;;;;;5072901;28;1344;-69
2022/05/11 08:38:26;;;;;;;;;;;19.10;61.30;;;;;;5056990;28;947;-70
2022/05/11 08:40:56;;;;;;;;;;;19.10;61.30;;;;;;5056687;28;924;-70
2022/05/11 08:43:22;;;;;;;;;;;19.10;61.30;;;;;;5056972;28;928;-68
2022/05/11 08:45:54;;;;;;;;;;;19.10;61.30;;;;;;5073578;28;1333;-66
2022/05/11 08:48:27;;;;;;;;;;;19.10;61.30;;;;;;5036777;28;845;-66
2022/05/11 08:50:53;;;;;;;;;;;19.10;61.30;;;;;;5054244;28;971;-66
2022/05/11 08:53:33;;;;;;;;;;;19.10;61.30;;;;;;5054608;28;1907;-66
2022/05/11 08:55:58;;;;;;;;;;;19.10;61.30;;;;;;5037022;28;1299;-68
2022/05/11 08:58:25;;;;;;;;;;;19.10;61.30;;;;;;5036255;28;1159;-68
2022/05/11 09:00:52;;;;;;;;;;;19.10;61.30;;;;;;5036026;28;1043;-67
2022/05/11 09:03:21;;;;;;;;;;;19.10;61.30;;;;;;5036850;28;1216;-68
2022/05/11 09:05:46;;;;;;;;;;;19.10;61.30;;;;;;5036847;28;1326;-68
2022/05/11 09:08:12;;;;;;;;;;;19.10;61.30;;;;;;5054303;28;703;-69
2022/05/11 09:10:38;;;;;;;;;;;19.10;61.30;;;;;;5053450;28;959;-69
2022/05/11 09:13:07;;;;;;;;;;;19.10;61.30;;;;;;5043318;28;1961;-69
2022/05/11 09:15:45;;;;;;;;;;;19.10;61.30;;;;;;5057140;28;1332;-68
2022/05/11 09:18:11;;;;;;;;;;;19.10;61.30;;;;;;5057225;28;1185;-69
2022/05/11 09:20:36;;;;;;;;;;;19.10;61.30;;;;;;5065895;28;938;-68
2022/05/11 09:23:02;;;;;;;;;;;19.10;61.30;;;;;;5053230;28;904;-68
2022/05/11 09:25:29;;;;;;;;;;;19.10;61.20;;;;;;5049337;28;1362;-68
2022/05/11 09:28:12;;;;;;;;;;;19.10;61.30;;;;;;5036273;28;870;-68
2022/05/11 09:30:38;;;;;;;;;;;19.10;61.30;;;;;;5053367;28;1400;-68
2022/05/11 09:33:13;;;;;;;;;;;19.10;61.20;;;;;;5054246;28;1910;-68
2022/05/11 09:35:39;;;;;;;;;;;19.10;61.20;;;;;;5068885;28;1274;-68
2022/05/11 09:38:25;;;;;;;;;;;19.10;61.20;;;;;;5067589;22;2174;-74
2022/05/11 09:40:58;;;;;;;;;;;19.10;61.30;;;;;;5030003;28;1400;-70
2022/05/11 09:43:37;;;;;;;;;;;19.10;61.30;;;;;;5028173;28;1605;-69
2022/05/11 09:46:14;;;;;;;;;;;19.10;61.20;;;;;;5029212;28;844;-67
2022/05/11 09:48:40;;;;;;;;;;;19.10;61.30;;;;;;5032344;28;1237;-69
2022/05/11 09:51:24;;;;;;;;;;;19.10;61.20;;;;;;5032344;28;935;-69
2022/05/11 09:54:02;;;;;;;;;;;19.10;61.30;;;;;;5049497;28;1917;-67
2022/05/11 09:56:34;;;;;;;;;;;19.10;61.30;;;;;;5032546;28;1127;-68
2022/05/11 09:59:18;;;;;;;;;;;19.10;61.30;;;;;;5053555;28;1236;-68
2022/05/11 10:01:43;;;;;;;;;;;19.10;61.30;;;;;;5055066;28;1082;-68
2022/05/11 10:04:09;;;;;;;;;;;19.10;61.20;;;;;;5053083;28;974;-69
2022/05/11 10:06:35;;;;;;;;;;;19.10;61.30;;;;;;5055067;28;935;-68
2022/05/11 10:09:00;;;;;;;;;;;19.10;61.30;;;;;;5052624;28;1193;-69
2022/05/11 10:11:31;;;;;;;;;;;19.10;61.30;;;;;;5044299;28;2349;-70
2022/05/11 10:21:50;;;;;;;;;;;19.10;61.30;;;;;;5035295;28;1906;-68
2022/05/11 10:22:38;;;;;;;;;;;19.10;61.30;;;;;;5032845;28;1189;-67
2022/05/11 10:25:14;;;;;;;;;;;19.10;61.30;;;;;;5028975;28;2277;-68
2022/05/11 10:27:45;;;;;;;;;;;19.10;61.30;;;;;;5029933;28;1842;-67
2022/05/11 10:30:18;;;;;;;;;;;19.10;61.30;;;;;;5023112;28;2052;-66
2022/05/11 10:33:01;;;;;;;;;;;19.10;61.30;;;;;;5033494;28;1063;-67
2022/05/11 10:35:41;;;;;;;;;;;19.10;61.30;;;;;;5050189;28;1577;-67
2022/05/11 10:38:17;;;;;;;;;;;19.10;61.30;;;;;;5051821;28;1315;-68
2022/05/11 10:41:03;;;;;;;;;;;19.10;61.30;;;;;;5051542;28;876;-66
2022/05/11 10:43:35;;;;;;;;;;;19.10;61.30;;;;;;5012062;28;745;-66
2022/05/11 10:46:12;;;;;;;;;;;19.10;61.30;;;;;;5018775;28;2238;-66
2022/05/11 10:48:37;;;;;;;;;;;19.10;61.30;;;;;;5013220;28;1962;-66
2022/05/11 10:51:12;;;;;;;;;;;19.10;61.30;;;;;;5030696;28;2040;-67
2022/05/11 10:53:47;;;;;;;;;;;19.10;61.30;;;;;;5033102;28;1907;-66
2022/05/11 10:56:31;;;;;;;;;;;19.10;61.30;;;;;;5032130;28;1107;-66
2022/05/11 10:59:00;;;;;;;;;;;19.10;61.30;;;;;;5031914;28;1282;-67
2022/05/11 11:01:25;;;;;;;;;;;19.10;61.30;;;;;;5048093;28;1253;-68
2022/05/11 11:03:51;;;;;;;;;;;19.10;61.30;;;;;;5032404;28;1097;-67
2022/05/11 11:09:32;;;;;;;;;;;19.10;61.30;;;;;;5033010;28;611;-67
2022/05/11 11:12:02;;;;;;;;;;;19.10;61.30;;;;;;5032728;28;805;-67
2022/05/11 11:14:34;;;;;;;;;;;19.10;61.30;;;;;;5031873;28;1910;-67
2022/05/11 11:17:01;;;;;;;;;;;19.10;61.30;;;;;;5033107;28;1211;-67
2022/05/11 11:19:26;;;;;;;;;;;19.20;61.40;;;;;;5048023;28;1214;-67
2022/05/11 11:21:51;;;;;;;;;;;19.10;61.30;;;;;;5051439;28;971;-67
2022/05/11 11:24:24;;;;;;;;;;;19.10;61.30;;;;;;5051691;28;928;-67
2022/05/11 11:26:54;;;;;;;;;;;19.20;61.30;;;;;;5053016;28;1311;-67
2022/05/11 11:29:21;;;;;;;;;;;19.10;61.30;;;;;;5050643;28;845;-67
2022/05/11 11:31:59;;;;;;;;;;;19.10;61.30;;;;;;5051738;28;950;-67
2022/05/11 11:34:26;;;;;;;;;;;19.10;61.30;;;;;;5048958;28;1967;-67
2022/05/11 11:36:51;;;;;;;;;;;19.10;61.30;;;;;;5032266;28;1223;-67
2022/05/11 11:39:35;;;;;;;;;;;19.10;61.30;;;;;;5034435;28;846;-67
2022/05/11 11:42:02;;;;;;;;;;;19.10;61.30;;;;;;5051401;28;912;-67
2022/05/11 11:44:30;;;;;;;;;;;19.20;61.40;;;;;;5034462;28;994;-68
2022/05/11 11:46:56;;;;;;;;;;;19.10;61.30;;;;;;5052656;28;1212;-66
2022/05/11 11:49:24;;;;;;;;;;;19.10;61.30;;;;;;5033526;28;1617;-67
2022/05/11 11:51:49;;;;;;;;;;;19.10;62.10;;;;;;5051956;28;848;-67
2022/05/11 11:54:46;;;;;;;;;;;19.10;61.30;;;;;;5052189;28;1988;-66
2022/05/11 11:57:12;;;;;;;;;;;19.10;61.30;;;;;;5040941;28;1418;-67
2022/05/11 11:59:44;;;;;;;;;;;19.10;61.30;;;;;;5071737;28;1043;-66
2022/05/11 12:02:26;;;;;;;;;;;19.20;61.40;;;;;;5054482;28;809;-67
2022/05/11 12:04:54;;;;;;;;;;;19.20;61.40;;;;;;5072791;28;840;-66
2022/05/11 12:15:42;;;;;;;;;;;19.20;61.40;;;;;;5036974;28;628;-67
2022/05/11 12:18:40;;;;;;;;;;;19.10;61.30;;;;;;5058450;28;1295;-67
2022/05/11 12:21:25;;;;;;;;;;;19.20;61.40;;;;;;5020622;28;1203;-67
2022/05/11 12:23:51;;;;;;;;;;;19.10;61.30;;;;;;5044603;28;1167;-67
2022/05/11 12:26:24;;;;;;;;;;;19.10;61.30;;;;;;5034649;28;1038;-67
2022/05/11 12:28:49;;;;;;;;;;;19.10;61.30;;;;;;5034220;28;1213;-67
2022/05/11 12:31:29;;;;;;;;;;;19.10;61.30;;;;;;5033575;28;887;-67
2022/05/11 12:33:55;;;;;;;;;;;19.10;61.30;;;;;;5034360;28;1960;-67
2022/05/11 12:36:33;;;;;;;;;;;19.10;61.30;;;;;;5034331;28;1126;-67
2022/05/11 12:39:00;;;;;;;;;;;19.10;61.30;;;;;;5050411;28;1344;-67
2022/05/11 12:41:27;;;;;;;;;;;19.20;61.40;;;;;;5049023;28;1168;-69
2022/05/11 12:43:59;;;;;;;;;;;19.20;61.40;;;;;;5033344;28;1176;-68
2022/05/11 12:46:25;;;;;;;;;;;19.20;61.40;;;;;;5050754;28;1227;-68
2022/05/11 12:48:55;;;;;;;;;;;19.10;61.30;;;;;;5032587;28;1382;-67
2022/05/11 12:51:31;;;;;;;;;;;19.20;61.40;;;;;;5031899;28;1219;-67
2022/05/11 12:53:57;;;;;;;;;;;19.10;61.30;;;;;;5030653;28;1911;-69
2022/05/11 12:56:24;;;;;;;;;;;19.20;61.40;;;;;;5050803;28;1192;-68
2022/05/11 12:58:50;;;;;;;;;;;19.20;61.40;;;;;;5053011;28;1287;-69
2022/05/11 13:01:16;;;;;;;;;;;19.20;61.50;;;;;;5017106;28;1476;-70
2022/05/11 13:03:42;;;;;;;;;;;19.20;61.40;;;;;;5031808;28;1263;-70
2022/05/11 13:06:24;;;;;;;;;;;19.20;61.40;;;;;;5049106;28;1247;-68
2022/05/11 13:08:50;;;;;;;;;;;19.20;61.40;;;;;;5035210;28;1222;-67
2022/05/11 13:11:18;;;;;;;;;;;19.20;61.40;;;;;;5035685;28;1184;-67
2022/05/11 13:13:45;;;;;;;;;;;19.20;61.40;;;;;;5036398;28;1910;-68
2022/05/11 13:16:14;;;;;;;;;;;19.10;61.30;;;;;;5035921;28;1421;-67
2022/05/11 13:18:40;;;;;;;;;;;19.20;61.40;;;;;;5036685;28;1394;-71
2022/05/11 13:21:08;;;;;;;;;;;19.20;61.40;;;;;;5035125;28;1528;-70
2022/05/11 13:23:34;;;;;;;;;;;19.20;61.40;;;;;;5053176;28;1155;-68
2022/05/11 13:26:00;;;;;;;;;;;19.20;61.40;;;;;;5036070;28;1211;-68
2022/05/11 13:28:27;;;;;;;;;;;19.20;61.40;;;;;;5035762;28;1313;-67
2022/05/11 13:30:56;;;;;;;;;;;19.20;61.40;;;;;;5035812;28;1180;-68
2022/05/11 13:33:34;;;;;;;;;;;19.20;61.40;;;;;;5037119;28;1902;-69
2022/05/11 13:36:03;;;;;;;;;;;19.20;61.40;;;;;;5071828;28;1075;-68
2022/05/11 13:38:29;;;;;;;;;;;19.20;61.40;;;;;;5075112;28;1217;-69
2022/05/11 13:40:54;;;;;;;;;;;19.20;61.40;;;;;;5056376;28;829;-69
2022/05/11 13:43:33;;;;;;;;;;;19.20;61.40;;;;;;5075304;28;848;-68
2022/05/11 13:46:00;;;;;;;;;;;19.20;61.40;;;;;;5056855;28;865;-69
2022/05/11 13:48:26;;;;;;;;;;;19.20;61.40;;;;;;5056983;28;1299;-68
2022/05/11 13:50:52;;;;;;;;;;;19.20;61.40;;;;;;5073857;28;1014;-68
2022/05/11 13:53:17;;;;;;;;;;;19.20;61.40;;;;;;5074728;28;1906;-68
2022/05/11 13:55:43;;;;;;;;;;;19.20;61.40;;;;;;5074691;28;979;-69
2022/05/11 13:58:21;;;;;;;;;;;19.20;61.40;;;;;;5056634;28;1305;-68
2022/05/11 14:00:46;;;;;;;;;;;19.20;61.40;;;;;;5073627;28;1002;-67
2022/05/11 14:03:12;;;;;;;;;;;19.20;61.40;;;;;;5056417;28;907;-68
2022/05/11 14:05:37;;;;;;;;;;;19.20;61.40;;;;;;5056391;28;1030;-68
2022/05/11 14:08:03;;;;;;;;;;;19.20;61.40;;;;;;5056373;28;1283;-69
2022/05/11 14:10:28;;;;;;;;;;;19.20;61.40;;;;;;5073768;28;1038;-68
2022/05/11 14:12:54;;;;;;;;;;;19.20;61.40;;;;;;5067859;28;1078;-69
2022/05/11 14:15:19;;;;;;;;;;;19.20;61.40;;;;;;5070522;28;1981;-68
2022/05/11 14:17:46;;;;;;;;;;;19.20;61.40;;;;;;5069869;28;1189;-68
2022/05/11 14:20:11;;;;;;;;;;;19.20;61.40;;;;;;5034824;28;1164;-68
2022/05/11 14:22:39;;;;;;;;;;;19.20;61.40;;;;;;5031611;28;2066;-68
2022/05/11 14:25:04;;;;;;;;;;;19.20;61.40;;;;;;5034123;28;1034;-68
2022/05/11 14:27:30;;;;;;;;;;;19.20;61.40;;;;;;5050933;28;2028;-67
2022/05/11 14:29:55;;;;;;;;;;;19.20;61.40;;;;;;5051177;28;1101;-69
2022/05/11 14:32:25;;;;;;;;;;;19.20;61.40;;;;;;5033938;28;1203;-69
2022/05/11 14:34:51;;;;;;;;;;;19.20;61.40;;;;;;5032378;28;1894;-69
2022/05/11 14:37:16;;;;;;;;;;;19.20;61.40;;;;;;5051285;28;1301;-69
2022/05/11 14:39:42;;;;;;;;;;;19.20;61.40;;;;;;5051139;28;1240;-69
2022/05/11 14:42:07;;;;;;;;;;;19.20;61.40;;;;;;5034140;28;1394;-69
2022/05/11 14:44:33;;;;;;;;;;;19.20;61.40;;;;;;5032878;28;1060;-69
2022/05/11 14:46:58;;;;;;;;;;;19.20;61.40;;;;;;5049686;28;1300;-68
2022/05/11 14:49:23;;;;;;;;;;;19.20;61.40;;;;;;5032827;28;1263;-68
2022/05/11 14:51:49;;;;;;;;;;;19.20;61.50;;;;;;5049761;28;1278;-69
2022/05/11 14:54:14;;;;;;;;;;;19.20;61.40;;;;;;5051110;28;1988;-69
2022/05/11 14:56:40;;;;;;;;;;;19.20;61.50;;;;;;5053334;28;1295;-71
2022/05/11 15:01:56;;;;;;;;;;;19.20;61.50;;;;;;5050118;28;1061;-69
2022/05/11 15:04:28;;;;;;;;;;;19.20;61.50;;;;;;5034973;28;1211;-69
2022/05/11 15:06:53;;;;;;;;;;;19.20;61.40;;;;;;5051349;28;1363;-70
2022/05/11 15:09:19;;;;;;;;;;;19.20;61.50;;;;;;5033102;28;1255;-69
2022/05/11 15:14:30;;;;;;;;;;;19.20;62.20;;;;;;5052227;28;1961;-68
2022/05/11 15:16:56;;;;;;;;;;;19.20;61.50;;;;;;5052208;28;1375;-72
2022/05/11 15:19:22;;;;;;;;;;;19.20;61.50;;;;;;5033505;28;1258;-70
2022/05/11 15:21:48;;;;;;;;;;;19.20;61.50;;;;;;5033792;28;800;-70
2022/05/11 15:24:13;;;;;;;;;;;19.20;61.50;;;;;;5051584;28;1022;-72